sensor_id;sensor_type;location;lat;lon;timestamp;P1;durP1;ratioP1;P2;durP2;ratioP2
73919;SDS011;62266;53.348;-1.496;2023-11-18T00:00:18;21.42;;;7.97;;
73919;SDS011;62266;53.348;-1.496;2023-11-18T00:03:03;21.27;;;8.25;;
73919;SDS011;62266;53.348;-1.496;2023-11-18T00:05:49;15.77;;;7.55;;
73919;SDS011;62266;53.348;-1.496;2023-11-18T00:08:33;17.23;;;8.70;;
73919;SDS011;62266;53.348;-1.496;2023-11-18T00:11:17;15.23;;;8.27;;
73919;SDS011;62266;53.348;-1.496;2023-11-18T00:14:02;21.35;;;9.35;;
73919;SDS011;62266;53.348;-1.496;2023-11-18T00:16:48;15.40;;;7.72;;
73919;SDS011;62266;53.348;-1.496;2023-11-18T00:19:33;19.35;;;8.15;;
73919;SDS011;62266;53.348;-1.496;2023-11-18T00:22:18;15.73;;;7.73;;
73919;SDS011;62266;53.348;-1.496;2023-11-18T00:25:03;13.95;;;7.25;;
73919;SDS011;62266;53.348;-1.496;2023-11-18T00:27:54;14.68;;;6.50;;
73919;SDS011;62266;53.348;-1.496;2023-11-18T00:30:38;11.65;;;5.22;;
73919;SDS011;62266;53.348;-1.496;2023-11-18T00:33:22;12.43;;;5.15;;
73919;SDS011;62266;53.348;-1.496;2023-11-18T00:36:06;8.57;;;4.60;;
73919;SDS011;62266;53.348;-1.496;2023-11-18T00:38:50;13.70;;;4.53;;
73919;SDS011;62266;53.348;-1.496;2023-11-18T00:41:34;9.98;;;4.50;;
73919;SDS011;62266;53.348;-1.496;2023-11-18T00:44:18;11.55;;;4.82;;
73919;SDS011;62266;53.348;-1.496;2023-11-18T00:47:03;6.85;;;3.90;;
73919;SDS011;62266;53.348;-1.496;2023-11-18T00:49:47;10.60;;;4.10;;
73919;SDS011;62266;53.348;-1.496;2023-11-18T00:52:32;14.80;;;4.00;;
73919;SDS011;62266;53.348;-1.496;2023-11-18T00:55:17;6.32;;;4.00;;
73919;SDS011;62266;53.348;-1.496;2023-11-18T00:58:04;10.60;;;4.13;;
73919;SDS011;62266;53.348;-1.496;2023-11-18T01:00:49;9.70;;;4.20;;
73919;SDS011;62266;53.348;-1.496;2023-11-18T01:03:33;11.53;;;4.33;;
73919;SDS011;62266;53.348;-1.496;2023-11-18T01:06:18;10.63;;;4.05;;
73919;SDS011;62266;53.348;-1.496;2023-11-18T01:09:01;10.02;;;3.83;;
73919;SDS011;62266;53.348;-1.496;2023-11-18T01:11:45;7.18;;;3.60;;
73919;SDS011;62266;53.348;-1.496;2023-11-18T01:14:29;8.32;;;3.90;;
73919;SDS011;62266;53.348;-1.496;2023-11-18T01:17:13;7.97;;;3.53;;
73919;SDS011;62266;53.348;-1.496;2023-11-18T01:19:57;10.98;;;3.17;;
73919;SDS011;62266;53.348;-1.496;2023-11-18T01:22:42;9.77;;;3.22;;
73919;SDS011;62266;53.348;-1.496;2023-11-18T01:25:29;7.55;;;3.28;;
73919;SDS011;62266;53.348;-1.496;2023-11-18T01:28:13;11.75;;;3.50;;
73919;SDS011;62266;53.348;-1.496;2023-11-18T01:30:59;8.67;;;3.00;;
73919;SDS011;62266;53.348;-1.496;2023-11-18T01:33:43;6.80;;;3.28;;
73919;SDS011;62266;53.348;-1.496;2023-11-18T01:36:29;11.07;;;3.40;;
73919;SDS011;62266;53.348;-1.496;2023-11-18T01:39:14;12.25;;;4.57;;
73919;SDS011;62266;53.348;-1.496;2023-11-18T01:41:59;9.63;;;4.20;;
73919;SDS011;62266;53.348;-1.496;2023-11-18T01:44:43;8.33;;;4.13;;
73919;SDS011;62266;53.348;-1.496;2023-11-18T01:47:27;8.95;;;3.88;;
73919;SDS011;62266;53.348;-1.496;2023-11-18T01:50:12;8.50;;;4.65;;
73919;SDS011;62266;53.348;-1.496;2023-11-18T01:52:56;7.65;;;3.47;;
73919;SDS011;62266;53.348;-1.496;2023-11-18T01:55:41;6.22;;;3.35;;
73919;SDS011;62266;53.348;-1.496;2023-11-18T01:58:27;5.83;;;3.40;;
73919;SDS011;62266;53.348;-1.496;2023-11-18T02:01:11;9.35;;;3.58;;
73919;SDS011;62266;53.348;-1.496;2023-11-18T02:03:55;6.97;;;3.30;;
73919;SDS011;62266;53.348;-1.496;2023-11-18T02:06:39;5.60;;;3.20;;
73919;SDS011;62266;53.348;-1.496;2023-11-18T02:09:23;4.22;;;3.30;;
73919;SDS011;62266;53.348;-1.496;2023-11-18T02:12:23;7.50;;;3.20;;
73919;SDS011;62266;53.348;-1.496;2023-11-18T02:15:10;5.35;;;2.78;;
73919;SDS011;62266;53.348;-1.496;2023-11-18T02:17:56;8.88;;;2.90;;
73919;SDS011;62266;53.348;-1.496;2023-11-18T02:20:41;5.43;;;2.50;;
73919;SDS011;62266;53.348;-1.496;2023-11-18T02:23:25;5.75;;;2.15;;
73919;SDS011;62266;53.348;-1.496;2023-11-18T02:26:10;4.33;;;2.30;;
73919;SDS011;62266;53.348;-1.496;2023-11-18T02:28:53;4.05;;;2.50;;
73919;SDS011;62266;53.348;-1.496;2023-11-18T02:31:37;5.22;;;2.25;;
73919;SDS011;62266;53.348;-1.496;2023-11-18T02:34:25;4.32;;;2.00;;
73919;SDS011;62266;53.348;-1.496;2023-11-18T02:37:12;3.58;;;2.20;;
73919;SDS011;62266;53.348;-1.496;2023-11-18T02:39:58;4.47;;;1.80;;
73919;SDS011;62266;53.348;-1.496;2023-11-18T02:42:48;3.83;;;2.10;;
73919;SDS011;62266;53.348;-1.496;2023-11-18T02:45:34;5.32;;;2.35;;
73919;SDS011;62266;53.348;-1.496;2023-11-18T02:48:19;4.72;;;2.35;;
73919;SDS011;62266;53.348;-1.496;2023-11-18T02:51:03;4.18;;;2.00;;
73919;SDS011;62266;53.348;-1.496;2023-11-18T02:53:48;2.77;;;2.00;;
73919;SDS011;62266;53.348;-1.496;2023-11-18T02:56:32;5.47;;;1.90;;
73919;SDS011;62266;53.348;-1.496;2023-11-18T02:59:16;5.15;;;1.83;;
73919;SDS011;62266;53.348;-1.496;2023-11-18T03:02:01;4.35;;;1.60;;
73919;SDS011;62266;53.348;-1.496;2023-11-18T03:04:45;1.95;;;1.60;;
73919;SDS011;62266;53.348;-1.496;2023-11-18T03:07:30;3.23;;;1.40;;
73919;SDS011;62266;53.348;-1.496;2023-11-18T03:10:14;3.20;;;1.33;;
73919;SDS011;62266;53.348;-1.496;2023-11-18T03:13:04;1.45;;;1.10;;
73919;SDS011;62266;53.348;-1.496;2023-11-18T03:15:49;2.55;;;1.10;;
73919;SDS011;62266;53.348;-1.496;2023-11-18T03:18:34;2.88;;;1.02;;
73919;SDS011;62266;53.348;-1.496;2023-11-18T03:21:18;1.97;;;1.13;;
73919;SDS011;62266;53.348;-1.496;2023-11-18T03:24:05;2.55;;;1.50;;
73919;SDS011;62266;53.348;-1.496;2023-11-18T03:26:50;2.03;;;1.23;;
73919;SDS011;62266;53.348;-1.496;2023-11-18T03:29:34;2.50;;;1.10;;
73919;SDS011;62266;53.348;-1.496;2023-11-18T03:32:19;2.45;;;1.30;;
73919;SDS011;62266;53.348;-1.496;2023-11-18T03:35:03;1.37;;;1.10;;
73919;SDS011;62266;53.348;-1.496;2023-11-18T03:37:52;2.33;;;1.30;;
73919;SDS011;62266;53.348;-1.496;2023-11-18T03:40:36;2.80;;;1.33;;
73919;SDS011;62266;53.348;-1.496;2023-11-18T03:43:20;1.63;;;1.00;;
73919;SDS011;62266;53.348;-1.496;2023-11-18T03:46:04;1.85;;;1.10;;
73919;SDS011;62266;53.348;-1.496;2023-11-18T03:48:49;1.10;;;0.80;;
73919;SDS011;62266;53.348;-1.496;2023-11-18T03:51:33;1.48;;;1.05;;
73919;SDS011;62266;53.348;-1.496;2023-11-18T03:54:17;2.63;;;1.15;;
73919;SDS011;62266;53.348;-1.496;2023-11-18T03:57:01;2.35;;;0.90;;
73919;SDS011;62266;53.348;-1.496;2023-11-18T03:59:45;1.58;;;0.90;;
73919;SDS011;62266;53.348;-1.496;2023-11-18T04:02:29;1.90;;;1.00;;
73919;SDS011;62266;53.348;-1.496;2023-11-18T04:05:13;2.30;;;0.93;;
73919;SDS011;62266;53.348;-1.496;2023-11-18T04:07:56;1.30;;;0.85;;
73919;SDS011;62266;53.348;-1.496;2023-11-18T04:10:41;1.92;;;0.70;;
73919;SDS011;62266;53.348;-1.496;2023-11-18T04:13:24;3.08;;;0.90;;
73919;SDS011;62266;53.348;-1.496;2023-11-18T04:16:12;1.70;;;0.50;;
73919;SDS011;62266;53.348;-1.496;2023-11-18T04:18:59;1.00;;;0.75;;
73919;SDS011;62266;53.348;-1.496;2023-11-18T04:21:43;0.88;;;0.55;;
73919;SDS011;62266;53.348;-1.496;2023-11-18T04:24:31;1.50;;;0.70;;
73919;SDS011;62266;53.348;-1.496;2023-11-18T04:27:16;0.80;;;0.63;;
73919;SDS011;62266;53.348;-1.496;2023-11-18T04:30:00;0.93;;;0.60;;
73919;SDS011;62266;53.348;-1.496;2023-11-18T04:32:44;0.73;;;0.50;;
73919;SDS011;62266;53.348;-1.496;2023-11-18T04:35:28;1.42;;;0.80;;
73919;SDS011;62266;53.348;-1.496;2023-11-18T04:38:12;0.90;;;0.70;;
73919;SDS011;62266;53.348;-1.496;2023-11-18T04:40:56;2.33;;;0.93;;
73919;SDS011;62266;53.348;-1.496;2023-11-18T04:43:40;1.70;;;0.80;;
73919;SDS011;62266;53.348;-1.496;2023-11-18T04:46:25;0.90;;;0.70;;
73919;SDS011;62266;53.348;-1.496;2023-11-18T04:49:09;1.45;;;1.00;;
73919;SDS011;62266;53.348;-1.496;2023-11-18T04:51:53;1.90;;;0.80;;
73919;SDS011;62266;53.348;-1.496;2023-11-18T04:54:37;1.20;;;0.85;;
73919;SDS011;62266;53.348;-1.496;2023-11-18T04:57:21;1.50;;;1.10;;
73919;SDS011;62266;53.348;-1.496;2023-11-18T05:00:05;1.30;;;0.88;;
73919;SDS011;62266;53.348;-1.496;2023-11-18T05:02:54;1.15;;;0.80;;
73919;SDS011;62266;53.348;-1.496;2023-11-18T05:05:38;2.33;;;1.15;;
73919;SDS011;62266;53.348;-1.496;2023-11-18T05:08:26;1.15;;;0.98;;
73919;SDS011;62266;53.348;-1.496;2023-11-18T05:11:10;2.07;;;1.07;;
73919;SDS011;62266;53.348;-1.496;2023-11-18T05:13:54;1.30;;;0.90;;
73919;SDS011;62266;53.348;-1.496;2023-11-18T05:16:39;1.20;;;1.10;;
73919;SDS011;62266;53.348;-1.496;2023-11-18T05:19:24;1.48;;;1.08;;
73919;SDS011;62266;53.348;-1.496;2023-11-18T05:22:09;1.80;;;1.30;;
73919;SDS011;62266;53.348;-1.496;2023-11-18T05:24:53;1.53;;;0.90;;
73919;SDS011;62266;53.348;-1.496;2023-11-18T05:27:37;1.25;;;1.02;;
73919;SDS011;62266;53.348;-1.496;2023-11-18T05:30:23;2.35;;;1.00;;
73919;SDS011;62266;53.348;-1.496;2023-11-18T05:33:07;2.03;;;1.10;;
73919;SDS011;62266;53.348;-1.496;2023-11-18T05:35:52;1.33;;;1.00;;
73919;SDS011;62266;53.348;-1.496;2023-11-18T05:38:37;2.00;;;1.00;;
73919;SDS011;62266;53.348;-1.496;2023-11-18T05:41:21;1.25;;;1.00;;
73919;SDS011;62266;53.348;-1.496;2023-11-18T05:44:11;1.67;;;1.30;;
73919;SDS011;62266;53.348;-1.496;2023-11-18T05:47:00;1.33;;;1.20;;
73919;SDS011;62266;53.348;-1.496;2023-11-18T05:49:45;1.45;;;1.08;;
73919;SDS011;62266;53.348;-1.496;2023-11-18T05:52:29;1.33;;;0.83;;
73919;SDS011;62266;53.348;-1.496;2023-11-18T05:55:13;1.48;;;0.93;;
73919;SDS011;62266;53.348;-1.496;2023-11-18T05:57:57;1.00;;;0.90;;
73919;SDS011;62266;53.348;-1.496;2023-11-18T06:00:41;1.90;;;1.10;;
73919;SDS011;62266;53.348;-1.496;2023-11-18T06:03:25;1.20;;;0.82;;
73919;SDS011;62266;53.348;-1.496;2023-11-18T06:06:09;1.63;;;1.20;;
73919;SDS011;62266;53.348;-1.496;2023-11-18T06:08:55;1.38;;;0.90;;
73919;SDS011;62266;53.348;-1.496;2023-11-18T06:11:42;1.90;;;1.30;;
73919;SDS011;62266;53.348;-1.496;2023-11-18T06:14:28;1.23;;;0.90;;
73919;SDS011;62266;53.348;-1.496;2023-11-18T06:17:12;1.67;;;1.20;;
73919;SDS011;62266;53.348;-1.496;2023-11-18T06:19:56;1.43;;;1.00;;
73919;SDS011;62266;53.348;-1.496;2023-11-18T06:22:43;1.10;;;0.82;;
73919;SDS011;62266;53.348;-1.496;2023-11-18T06:25:28;1.20;;;0.90;;
73919;SDS011;62266;53.348;-1.496;2023-11-18T06:28:13;1.30;;;1.02;;
73919;SDS011;62266;53.348;-1.496;2023-11-18T06:30:59;1.17;;;0.88;;
73919;SDS011;62266;53.348;-1.496;2023-11-18T06:33:43;1.33;;;0.80;;
73919;SDS011;62266;53.348;-1.496;2023-11-18T06:36:29;1.00;;;0.80;;
73919;SDS011;62266;53.348;-1.496;2023-11-18T06:39:14;0.80;;;0.60;;
73919;SDS011;62266;53.348;-1.496;2023-11-18T06:42:00;1.80;;;0.85;;
73919;SDS011;62266;53.348;-1.496;2023-11-18T06:44:46;1.10;;;0.88;;
73919;SDS011;62266;53.348;-1.496;2023-11-18T06:47:32;3.03;;;0.67;;
73919;SDS011;62266;53.348;-1.496;2023-11-18T06:50:18;2.03;;;0.93;;
73919;SDS011;62266;53.348;-1.496;2023-11-18T06:53:08;2.17;;;0.80;;
73919;SDS011;62266;53.348;-1.496;2023-11-18T06:55:52;1.35;;;0.98;;
73919;SDS011;62266;53.348;-1.496;2023-11-18T06:58:39;1.80;;;0.95;;
73919;SDS011;62266;53.348;-1.496;2023-11-18T07:01:30;1.10;;;0.70;;
73919;SDS011;62266;53.348;-1.496;2023-11-18T07:04:14;1.88;;;0.73;;
73919;SDS011;62266;53.348;-1.496;2023-11-18T07:06:58;1.00;;;0.80;;
73919;SDS011;62266;53.348;-1.496;2023-11-18T07:09:42;1.63;;;1.10;;
73919;SDS011;62266;53.348;-1.496;2023-11-18T07:12:28;1.75;;;1.40;;
73919;SDS011;62266;53.348;-1.496;2023-11-18T07:15:12;2.73;;;1.03;;
73919;SDS011;62266;53.348;-1.496;2023-11-18T07:17:57;2.80;;;1.60;;
73919;SDS011;62266;53.348;-1.496;2023-11-18T07:20:40;2.42;;;1.38;;
73919;SDS011;62266;53.348;-1.496;2023-11-18T07:23:25;3.33;;;1.67;;
73919;SDS011;62266;53.348;-1.496;2023-11-18T07:26:10;1.88;;;1.35;;
73919;SDS011;62266;53.348;-1.496;2023-11-18T07:28:54;2.93;;;1.60;;
73919;SDS011;62266;53.348;-1.496;2023-11-18T07:31:38;2.10;;;1.10;;
73919;SDS011;62266;53.348;-1.496;2023-11-18T07:34:22;2.95;;;1.65;;
73919;SDS011;62266;53.348;-1.496;2023-11-18T07:37:07;2.83;;;1.50;;
73919;SDS011;62266;53.348;-1.496;2023-11-18T07:39:56;2.67;;;1.85;;
73919;SDS011;62266;53.348;-1.496;2023-11-18T07:42:44;3.67;;;1.40;;
73919;SDS011;62266;53.348;-1.496;2023-11-18T07:45:34;2.05;;;1.13;;
73919;SDS011;62266;53.348;-1.496;2023-11-18T07:48:21;2.83;;;1.60;;
73919;SDS011;62266;53.348;-1.496;2023-11-18T07:51:05;2.90;;;1.50;;
73919;SDS011;62266;53.348;-1.496;2023-11-18T07:53:50;3.40;;;1.90;;
73919;SDS011;62266;53.348;-1.496;2023-11-18T07:56:35;3.50;;;1.53;;
73919;SDS011;62266;53.348;-1.496;2023-11-18T07:59:20;3.25;;;1.80;;
73919;SDS011;62266;53.348;-1.496;2023-11-18T08:02:04;3.10;;;1.83;;
73919;SDS011;62266;53.348;-1.496;2023-11-18T08:04:52;4.00;;;1.95;;
73919;SDS011;62266;53.348;-1.496;2023-11-18T08:07:37;3.13;;;1.75;;
73919;SDS011;62266;53.348;-1.496;2023-11-18T08:10:21;2.30;;;1.30;;
73919;SDS011;62266;53.348;-1.496;2023-11-18T08:13:06;3.42;;;1.48;;
73919;SDS011;62266;53.348;-1.496;2023-11-18T08:15:51;3.50;;;1.50;;
73919;SDS011;62266;53.348;-1.496;2023-11-18T08:18:36;3.50;;;1.80;;
73919;SDS011;62266;53.348;-1.496;2023-11-18T08:21:20;4.50;;;2.03;;
73919;SDS011;62266;53.348;-1.496;2023-11-18T08:24:06;4.43;;;2.07;;
73919;SDS011;62266;53.348;-1.496;2023-11-18T08:26:51;3.20;;;1.77;;
73919;SDS011;62266;53.348;-1.496;2023-11-18T08:29:36;2.97;;;1.90;;
73919;SDS011;62266;53.348;-1.496;2023-11-18T08:32:21;2.75;;;1.67;;
73919;SDS011;62266;53.348;-1.496;2023-11-18T08:35:07;3.10;;;2.05;;
73919;SDS011;62266;53.348;-1.496;2023-11-18T08:37:52;4.00;;;2.30;;
73919;SDS011;62266;53.348;-1.496;2023-11-18T08:40:36;4.50;;;2.63;;
73919;SDS011;62266;53.348;-1.496;2023-11-18T08:43:20;4.22;;;2.38;;
73919;SDS011;62266;53.348;-1.496;2023-11-18T08:46:05;5.85;;;3.03;;
73919;SDS011;62266;53.348;-1.496;2023-11-18T08:48:51;7.15;;;2.95;;
73919;SDS011;62266;53.348;-1.496;2023-11-18T08:51:35;5.30;;;3.10;;
73919;SDS011;62266;53.348;-1.496;2023-11-18T08:54:20;4.80;;;2.65;;
73919;SDS011;62266;53.348;-1.496;2023-11-18T08:57:09;6.03;;;2.67;;
73919;SDS011;62266;53.348;-1.496;2023-11-18T09:00:19;5.20;;;2.50;;
73919;SDS011;62266;53.348;-1.496;2023-11-18T09:03:23;5.85;;;2.58;;
73919;SDS011;62266;53.348;-1.496;2023-11-18T09:06:09;3.97;;;2.17;;
73919;SDS011;62266;53.348;-1.496;2023-11-18T09:09:09;4.63;;;2.22;;
73919;SDS011;62266;53.348;-1.496;2023-11-18T09:11:55;4.28;;;2.20;;
73919;SDS011;62266;53.348;-1.496;2023-11-18T09:14:40;4.25;;;2.42;;
73919;SDS011;62266;53.348;-1.496;2023-11-18T09:17:26;6.00;;;2.40;;
73919;SDS011;62266;53.348;-1.496;2023-11-18T09:20:11;5.80;;;2.57;;
73919;SDS011;62266;53.348;-1.496;2023-11-18T09:22:55;4.78;;;2.78;;
73919;SDS011;62266;53.348;-1.496;2023-11-18T09:25:39;5.93;;;3.15;;
73919;SDS011;62266;53.348;-1.496;2023-11-18T09:28:38;4.78;;;2.85;;
73919;SDS011;62266;53.348;-1.496;2023-11-18T09:31:22;5.15;;;3.00;;
73919;SDS011;62266;53.348;-1.496;2023-11-18T09:34:07;7.67;;;2.90;;
73919;SDS011;62266;53.348;-1.496;2023-11-18T09:36:59;6.78;;;3.47;;
73919;SDS011;62266;53.348;-1.496;2023-11-18T09:39:43;5.15;;;2.85;;
73919;SDS011;62266;53.348;-1.496;2023-11-18T09:42:29;6.38;;;3.58;;
73919;SDS011;62266;53.348;-1.496;2023-11-18T09:45:13;6.00;;;3.25;;
73919;SDS011;62266;53.348;-1.496;2023-11-18T09:48:03;5.63;;;3.10;;
73919;SDS011;62266;53.348;-1.496;2023-11-18T09:50:51;7.55;;;3.55;;
73919;SDS011;62266;53.348;-1.496;2023-11-18T09:53:37;7.85;;;3.75;;
73919;SDS011;62266;53.348;-1.496;2023-11-18T09:56:49;6.32;;;3.20;;
73919;SDS011;62266;53.348;-1.496;2023-11-18T09:59:54;6.57;;;3.70;;
73919;SDS011;62266;53.348;-1.496;2023-11-18T10:02:54;6.47;;;3.60;;
73919;SDS011;62266;53.348;-1.496;2023-11-18T10:05:44;7.43;;;3.90;;
73919;SDS011;62266;53.348;-1.496;2023-11-18T10:08:28;6.43;;;3.30;;
73919;SDS011;62266;53.348;-1.496;2023-11-18T10:11:14;6.65;;;3.63;;
73919;SDS011;62266;53.348;-1.496;2023-11-18T10:13:59;7.07;;;3.78;;
73919;SDS011;62266;53.348;-1.496;2023-11-18T10:16:50;6.23;;;3.60;;
73919;SDS011;62266;53.348;-1.496;2023-11-18T10:19:57;6.18;;;3.58;;
73919;SDS011;62266;53.348;-1.496;2023-11-18T10:22:43;5.93;;;3.72;;
73919;SDS011;62266;53.348;-1.496;2023-11-18T10:25:28;7.07;;;4.10;;
73919;SDS011;62266;53.348;-1.496;2023-11-18T10:31:13;5.77;;;3.50;;
73919;SDS011;62266;53.348;-1.496;2023-11-18T10:34:02;4.43;;;3.10;;
73919;SDS011;62266;53.348;-1.496;2023-11-18T10:37:01;4.55;;;2.78;;
73919;SDS011;62266;53.348;-1.496;2023-11-18T10:39:49;3.20;;;2.10;;
73919;SDS011;62266;53.348;-1.496;2023-11-18T10:42:36;4.38;;;2.00;;
73919;SDS011;62266;53.348;-1.496;2023-11-18T10:45:23;2.93;;;1.30;;
73919;SDS011;62266;53.348;-1.496;2023-11-18T10:48:08;1.45;;;0.90;;
73919;SDS011;62266;53.348;-1.496;2023-11-18T10:50:56;2.50;;;0.93;;
73919;SDS011;62266;53.348;-1.496;2023-11-18T10:53:43;1.45;;;0.95;;
73919;SDS011;62266;53.348;-1.496;2023-11-18T10:56:36;1.55;;;0.80;;
73919;SDS011;62266;53.348;-1.496;2023-11-18T10:59:22;1.30;;;0.70;;
73919;SDS011;62266;53.348;-1.496;2023-11-18T11:02:19;1.27;;;0.60;;
73919;SDS011;62266;53.348;-1.496;2023-11-18T11:05:10;1.40;;;0.85;;
73919;SDS011;62266;53.348;-1.496;2023-11-18T11:08:01;1.58;;;0.47;;
73919;SDS011;62266;53.348;-1.496;2023-11-18T11:10:48;0.70;;;0.50;;
73919;SDS011;62266;53.348;-1.496;2023-11-18T11:13:33;1.53;;;0.60;;
73919;SDS011;62266;53.348;-1.496;2023-11-18T11:16:18;1.52;;;0.68;;
73919;SDS011;62266;53.348;-1.496;2023-11-18T11:19:04;1.50;;;0.98;;
73919;SDS011;62266;53.348;-1.496;2023-11-18T11:21:55;1.90;;;0.50;;
73919;SDS011;62266;53.348;-1.496;2023-11-18T11:28:18;2.80;;;0.50;;
73919;SDS011;62266;53.348;-1.496;2023-11-18T11:33:55;3.80;;;1.98;;
73919;SDS011;62266;53.348;-1.496;2023-11-18T11:36:55;1.73;;;0.88;;
73919;SDS011;62266;53.348;-1.496;2023-11-18T11:39:40;2.03;;;1.00;;
73919;SDS011;62266;53.348;-1.496;2023-11-18T11:42:31;1.70;;;1.10;;
73919;SDS011;62266;53.348;-1.496;2023-11-18T11:45:15;3.05;;;0.77;;
73919;SDS011;62266;53.348;-1.496;2023-11-18T11:48:06;2.13;;;1.00;;
73919;SDS011;62266;53.348;-1.496;2023-11-18T11:54:17;1.38;;;1.00;;
73919;SDS011;62266;53.348;-1.496;2023-11-18T11:57:04;3.43;;;0.60;;
73919;SDS011;62266;53.348;-1.496;2023-11-18T12:02:47;2.80;;;0.93;;
73919;SDS011;62266;53.348;-1.496;2023-11-18T12:05:32;1.65;;;0.80;;
73919;SDS011;62266;53.348;-1.496;2023-11-18T12:08:17;3.10;;;1.10;;
73919;SDS011;62266;53.348;-1.496;2023-11-18T12:11:02;3.33;;;1.90;;
73919;SDS011;62266;53.348;-1.496;2023-11-18T12:14:05;3.15;;;1.73;;
73919;SDS011;62266;53.348;-1.496;2023-11-18T12:17:06;3.58;;;1.10;;
73919;SDS011;62266;53.348;-1.496;2023-11-18T12:20:04;1.52;;;0.70;;
73919;SDS011;62266;53.348;-1.496;2023-11-18T12:23:39;2.40;;;0.85;;
73919;SDS011;62266;53.348;-1.496;2023-11-18T12:27:04;3.27;;;0.90;;
73919;SDS011;62266;53.348;-1.496;2023-11-18T12:29:54;2.22;;;0.90;;
73919;SDS011;62266;53.348;-1.496;2023-11-18T12:43:03;3.57;;;1.37;;
73919;SDS011;62266;53.348;-1.496;2023-11-18T12:46:02;2.72;;;0.70;;
73919;SDS011;62266;53.348;-1.496;2023-11-18T12:48:58;4.07;;;1.02;;
73919;SDS011;62266;53.348;-1.496;2023-11-18T12:51:45;1.77;;;0.75;;
73919;SDS011;62266;53.348;-1.496;2023-11-18T12:54:29;4.38;;;1.08;;
73919;SDS011;62266;53.348;-1.496;2023-11-18T12:57:13;2.90;;;1.20;;
73919;SDS011;62266;53.348;-1.496;2023-11-18T12:59:57;2.75;;;0.90;;
73919;SDS011;62266;53.348;-1.496;2023-11-18T13:02:41;3.03;;;1.23;;
73919;SDS011;62266;53.348;-1.496;2023-11-18T13:05:26;3.25;;;0.70;;
73919;SDS011;62266;53.348;-1.496;2023-11-18T13:08:13;3.40;;;0.98;;
73919;SDS011;62266;53.348;-1.496;2023-11-18T13:10:59;3.50;;;1.20;;
73919;SDS011;62266;53.348;-1.496;2023-11-18T13:13:48;3.42;;;0.90;;
73919;SDS011;62266;53.348;-1.496;2023-11-18T13:16:33;3.70;;;1.60;;
73919;SDS011;62266;53.348;-1.496;2023-11-18T13:19:24;3.25;;;0.77;;
73919;SDS011;62266;53.348;-1.496;2023-11-18T13:22:12;3.28;;;1.13;;
73919;SDS011;62266;53.348;-1.496;2023-11-18T13:24:57;4.27;;;1.27;;
73919;SDS011;62266;53.348;-1.496;2023-11-18T13:27:43;3.80;;;1.20;;
73919;SDS011;62266;53.348;-1.496;2023-11-18T13:30:27;3.58;;;1.63;;
73919;SDS011;62266;53.348;-1.496;2023-11-18T13:33:12;8.45;;;1.67;;
73919;SDS011;62266;53.348;-1.496;2023-11-18T13:35:57;4.60;;;1.40;;
73919;SDS011;62266;53.348;-1.496;2023-11-18T13:38:42;3.83;;;1.00;;
73919;SDS011;62266;53.348;-1.496;2023-11-18T13:41:28;5.15;;;1.50;;
73919;SDS011;62266;53.348;-1.496;2023-11-18T13:44:34;5.32;;;1.52;;
73919;SDS011;62266;53.348;-1.496;2023-11-18T13:47:21;7.25;;;1.30;;
73919;SDS011;62266;53.348;-1.496;2023-11-18T13:50:06;7.18;;;2.00;;
73919;SDS011;62266;53.348;-1.496;2023-11-18T13:52:52;6.40;;;1.50;;
73919;SDS011;62266;53.348;-1.496;2023-11-18T13:55:37;4.95;;;1.45;;
73919;SDS011;62266;53.348;-1.496;2023-11-18T13:58:22;4.47;;;1.30;;
73919;SDS011;62266;53.348;-1.496;2023-11-18T14:01:06;7.70;;;2.20;;
73919;SDS011;62266;53.348;-1.496;2023-11-18T14:03:54;3.05;;;1.88;;
73919;SDS011;62266;53.348;-1.496;2023-11-18T14:06:38;7.50;;;1.33;;
73919;SDS011;62266;53.348;-1.496;2023-11-18T14:09:23;7.78;;;1.50;;
73919;SDS011;62266;53.348;-1.496;2023-11-18T14:12:09;4.35;;;1.30;;
73919;SDS011;62266;53.348;-1.496;2023-11-18T14:14:53;4.10;;;1.63;;
73919;SDS011;62266;53.348;-1.496;2023-11-18T14:17:37;5.80;;;1.67;;
73919;SDS011;62266;53.348;-1.496;2023-11-18T14:20:21;7.47;;;1.40;;
73919;SDS011;62266;53.348;-1.496;2023-11-18T14:23:06;9.50;;;1.70;;
73919;SDS011;62266;53.348;-1.496;2023-11-18T14:25:50;9.95;;;2.35;;
73919;SDS011;62266;53.348;-1.496;2023-11-18T14:28:35;6.15;;;1.60;;
73919;SDS011;62266;53.348;-1.496;2023-11-18T14:31:19;7.82;;;1.58;;
73919;SDS011;62266;53.348;-1.496;2023-11-18T14:34:06;5.87;;;1.67;;
73919;SDS011;62266;53.348;-1.496;2023-11-18T14:36:53;6.95;;;1.60;;
73919;SDS011;62266;53.348;-1.496;2023-11-18T14:39:37;8.68;;;1.77;;
73919;SDS011;62266;53.348;-1.496;2023-11-18T14:42:21;7.55;;;2.28;;
73919;SDS011;62266;53.348;-1.496;2023-11-18T14:45:06;5.55;;;1.90;;
73919;SDS011;62266;53.348;-1.496;2023-11-18T14:47:52;8.20;;;1.63;;
73919;SDS011;62266;53.348;-1.496;2023-11-18T14:50:36;7.75;;;2.08;;
73919;SDS011;62266;53.348;-1.496;2023-11-18T14:53:22;9.90;;;2.30;;
73919;SDS011;62266;53.348;-1.496;2023-11-18T14:56:06;6.10;;;1.60;;
73919;SDS011;62266;53.348;-1.496;2023-11-18T14:58:50;6.93;;;1.65;;
73919;SDS011;62266;53.348;-1.496;2023-11-18T15:01:35;12.97;;;2.80;;
73919;SDS011;62266;53.348;-1.496;2023-11-18T15:04:20;8.68;;;1.63;;
73919;SDS011;62266;53.348;-1.496;2023-11-18T15:07:05;7.93;;;1.83;;
73919;SDS011;62266;53.348;-1.496;2023-11-18T15:09:51;8.70;;;1.70;;
73919;SDS011;62266;53.348;-1.496;2023-11-18T15:12:36;8.35;;;1.60;;
73919;SDS011;62266;53.348;-1.496;2023-11-18T15:15:21;6.13;;;1.30;;
73919;SDS011;62266;53.348;-1.496;2023-11-18T15:18:15;10.18;;;1.88;;
73919;SDS011;62266;53.348;-1.496;2023-11-18T15:21:01;6.18;;;1.40;;
73919;SDS011;62266;53.348;-1.496;2023-11-18T15:23:45;11.93;;;1.75;;
73919;SDS011;62266;53.348;-1.496;2023-11-18T15:26:31;10.80;;;1.80;;
73919;SDS011;62266;53.348;-1.496;2023-11-18T15:29:16;9.67;;;1.90;;
73919;SDS011;62266;53.348;-1.496;2023-11-18T15:32:00;9.85;;;2.55;;
73919;SDS011;62266;53.348;-1.496;2023-11-18T15:34:44;6.50;;;1.40;;
73919;SDS011;62266;53.348;-1.496;2023-11-18T15:37:29;10.25;;;1.88;;
73919;SDS011;62266;53.348;-1.496;2023-11-18T15:40:14;11.75;;;2.00;;
73919;SDS011;62266;53.348;-1.496;2023-11-18T15:43:03;8.03;;;2.00;;
73919;SDS011;62266;53.348;-1.496;2023-11-18T15:45:51;9.18;;;1.67;;
73919;SDS011;62266;53.348;-1.496;2023-11-18T15:48:35;11.27;;;2.55;;
73919;SDS011;62266;53.348;-1.496;2023-11-18T15:51:19;11.13;;;2.03;;
73919;SDS011;62266;53.348;-1.496;2023-11-18T15:54:04;12.35;;;2.05;;
73919;SDS011;62266;53.348;-1.496;2023-11-18T15:56:49;12.23;;;2.37;;
73919;SDS011;62266;53.348;-1.496;2023-11-18T15:59:34;14.13;;;3.00;;
73919;SDS011;62266;53.348;-1.496;2023-11-18T16:02:18;18.10;;;2.83;;
73919;SDS011;62266;53.348;-1.496;2023-11-18T16:05:02;15.85;;;2.75;;
73919;SDS011;62266;53.348;-1.496;2023-11-18T16:07:47;16.02;;;2.47;;
73919;SDS011;62266;53.348;-1.496;2023-11-18T16:10:34;13.17;;;2.97;;
73919;SDS011;62266;53.348;-1.496;2023-11-18T16:13:18;10.75;;;2.30;;
73919;SDS011;62266;53.348;-1.496;2023-11-18T16:16:04;8.95;;;1.70;;
73919;SDS011;62266;53.348;-1.496;2023-11-18T16:18:48;15.60;;;2.80;;
73919;SDS011;62266;53.348;-1.496;2023-11-18T16:21:36;20.98;;;4.25;;
73919;SDS011;62266;53.348;-1.496;2023-11-18T16:24:21;14.50;;;3.20;;
73919;SDS011;62266;53.348;-1.496;2023-11-18T16:27:05;11.27;;;2.95;;
73919;SDS011;62266;53.348;-1.496;2023-11-18T16:29:49;9.32;;;2.05;;
73919;SDS011;62266;53.348;-1.496;2023-11-18T16:32:33;14.18;;;2.95;;
73919;SDS011;62266;53.348;-1.496;2023-11-18T16:35:18;16.63;;;2.58;;
73919;SDS011;62266;53.348;-1.496;2023-11-18T16:38:03;14.70;;;2.50;;
73919;SDS011;62266;53.348;-1.496;2023-11-18T16:40:48;15.77;;;3.50;;
73919;SDS011;62266;53.348;-1.496;2023-11-18T16:43:32;17.85;;;2.90;;
73919;SDS011;62266;53.348;-1.496;2023-11-18T16:46:17;16.77;;;2.70;;
73919;SDS011;62266;53.348;-1.496;2023-11-18T16:49:01;10.85;;;2.67;;
73919;SDS011;62266;53.348;-1.496;2023-11-18T16:51:45;14.30;;;2.83;;